createdAt,value
2018-05-21T00:01:20.595Z,1.93
2018-05-21T00:03:48.353Z,2.57
2018-05-21T00:06:16.072Z,2.30
2018-05-21T00:08:43.825Z,2.97
2018-05-21T00:11:12.309Z,2.47
2018-05-21T00:13:40.153Z,2.30
2018-05-21T00:16:07.858Z,2.20
2018-05-21T00:18:35.560Z,2.07
2018-05-21T00:21:03.372Z,2.40
2018-05-21T00:23:31.073Z,2.00
2018-05-21T00:25:58.774Z,2.33
2018-05-21T00:28:27.276Z,1.90
2018-05-21T00:30:55.845Z,2.27
2018-05-21T00:33:24.733Z,2.20
2018-05-21T00:35:53.194Z,2.50
2018-05-21T00:38:20.891Z,2.73
2018-05-21T00:40:49.397Z,2.50
2018-05-21T00:43:17.105Z,2.47
2018-05-21T00:45:45.316Z,2.17
2018-05-21T00:48:13.806Z,2.63
2018-05-21T00:50:42.027Z,3.67
2018-05-21T00:53:09.783Z,2.20
2018-05-21T00:55:38.414Z,2.23
2018-05-21T00:58:06.948Z,1.83
2018-05-21T01:00:34.784Z,2.60
2018-05-21T01:03:02.478Z,2.30
2018-05-21T01:05:30.192Z,2.33
2018-05-21T01:07:58.695Z,2.50
2018-05-21T01:10:26.400Z,2.10
2018-05-21T01:12:54.613Z,2.03
2018-05-21T01:15:23.094Z,2.50
2018-05-21T01:17:51.543Z,2.87
2018-05-21T01:20:19.745Z,2.20
2018-05-21T01:22:48.210Z,2.10
2018-05-21T01:25:15.920Z,1.93
2018-05-21T01:27:43.654Z,2.30
2018-05-21T01:30:12.143Z,2.77
2018-05-21T01:32:40.643Z,2.30
2018-05-21T01:35:08.338Z,2.10
2018-05-21T01:37:36.073Z,2.73
2018-05-21T01:40:03.799Z,3.00
2018-05-21T01:42:31.555Z,2.90
2018-05-21T01:44:59.307Z,2.83
2018-05-21T01:47:27.007Z,2.40
2018-05-21T01:49:55.621Z,2.83
2018-05-21T01:52:23.325Z,3.37
2018-05-21T01:54:51.023Z,3.47
2018-05-21T01:57:19.518Z,5.20
2018-05-21T01:59:47.216Z,5.40
2018-05-21T02:02:15.080Z,6.10
2018-05-21T02:04:42.770Z,4.00
2018-05-21T02:07:10.503Z,3.57
2018-05-21T02:09:38.245Z,3.27
2018-05-21T02:12:06.341Z,2.67
2018-05-21T02:14:34.568Z,2.90
2018-05-21T02:17:03.032Z,3.20
2018-05-21T02:19:30.733Z,2.63
2018-05-21T02:21:58.471Z,2.90
2018-05-21T02:24:26.160Z,3.03
2018-05-21T02:26:53.903Z,2.77
2018-05-21T02:29:22.367Z,2.73
2018-05-21T02:31:50.576Z,2.97
2018-05-21T02:34:18.292Z,3.30
2018-05-21T02:36:46.010Z,2.97
2018-05-21T02:39:13.757Z,2.87
2018-05-21T02:41:42.250Z,2.40
2018-05-21T02:44:11.052Z,2.30
2018-05-21T02:46:38.752Z,2.30
2018-05-21T02:49:06.475Z,2.67
2018-05-21T02:51:34.225Z,2.20
2018-05-21T02:54:02.689Z,2.70
2018-05-21T02:56:30.435Z,2.30
2018-05-21T02:58:58.135Z,2.60
2018-05-21T03:01:26.932Z,3.10
2018-05-21T03:03:54.631Z,2.80
2018-05-21T03:06:22.356Z,2.97
2018-05-21T03:08:50.882Z,2.20
2018-05-21T03:11:18.649Z,2.80
2018-05-21T03:13:46.354Z,2.83
2018-05-21T03:16:14.828Z,2.50
2018-05-21T03:18:43.385Z,2.60
2018-05-21T03:21:11.237Z,2.30
2018-05-21T03:23:38.933Z,3.00
2018-05-21T03:26:06.673Z,2.33
2018-05-21T03:28:34.419Z,2.30
2018-05-21T03:31:02.124Z,2.20
2018-05-21T03:33:29.889Z,2.37
2018-05-21T03:35:57.583Z,2.53
2018-05-21T03:38:25.316Z,2.87
2018-05-21T03:40:53.049Z,2.70
2018-05-21T03:43:20.752Z,2.70
2018-05-21T03:45:49.284Z,2.97
2018-05-21T03:48:16.980Z,2.20
2018-05-21T03:50:44.685Z,2.73
2018-05-21T03:53:13.180Z,2.43
2018-05-21T03:55:40.880Z,2.30
2018-05-21T03:58:20.540Z,2.63
2018-05-21T04:00:59.999Z,2.60
2018-05-21T04:03:40.491Z,2.60
2018-05-21T04:06:09.129Z,2.47
2018-05-21T04:08:36.818Z,2.60
2018-05-21T04:11:05.438Z,2.40
2018-05-21T04:13:33.140Z,2.53
2018-05-21T04:16:00.862Z,2.20
2018-05-21T04:18:28.592Z,2.37
2018-05-21T04:20:57.053Z,2.33
2018-05-21T04:23:25.140Z,3.87
2018-05-21T04:25:53.610Z,2.43
2018-05-21T04:28:21.297Z,3.53
2018-05-21T04:30:49.783Z,2.47
2018-05-21T04:33:17.480Z,2.80
2018-05-21T04:35:45.326Z,1.87
2018-05-21T04:38:13.023Z,2.40
2018-05-21T04:40:40.717Z,2.70
2018-05-21T04:43:09.223Z,2.50
2018-05-21T04:45:37.036Z,2.67
2018-05-21T04:48:04.900Z,2.47
2018-05-21T04:50:32.610Z,2.50
2018-05-21T04:53:01.068Z,2.37
2018-05-21T04:55:28.812Z,2.70
2018-05-21T04:57:56.498Z,2.20
2018-05-21T05:00:24.339Z,3.00
2018-05-21T05:02:52.111Z,2.50
2018-05-21T05:05:19.808Z,2.40
2018-05-21T05:07:48.789Z,2.40
2018-05-21T05:10:17.450Z,2.27
2018-05-21T05:12:46.061Z,2.00
2018-05-21T05:15:14.573Z,2.67
2018-05-21T05:17:42.263Z,2.47
2018-05-21T05:20:10.130Z,2.70
2018-05-21T05:22:38.885Z,2.47
2018-05-21T05:25:06.634Z,2.10
2018-05-21T05:27:37.438Z,2.80
2018-05-21T05:30:06.716Z,2.30
2018-05-21T05:32:34.439Z,2.60
2018-05-21T05:35:02.916Z,2.27
2018-05-21T05:37:31.376Z,2.37
2018-05-21T05:39:59.098Z,2.40
2018-05-21T05:42:26.784Z,2.80
2018-05-21T05:44:54.532Z,2.40
2018-05-21T05:47:22.322Z,2.40
2018-05-21T05:49:50.151Z,2.53
2018-05-21T05:52:17.859Z,2.50
2018-05-21T05:54:45.557Z,2.67
2018-05-21T05:57:14.074Z,2.40
2018-05-21T05:59:41.797Z,3.43
2018-05-21T06:02:10.439Z,2.20
2018-05-21T06:04:38.146Z,2.17
2018-05-21T06:07:06.626Z,3.13
2018-05-21T06:09:35.144Z,2.30
2018-05-21T06:12:02.884Z,2.30
2018-05-21T06:14:31.040Z,2.70
2018-05-21T06:16:59.518Z,2.10
2018-05-21T06:19:28.016Z,2.93
2018-05-21T06:21:56.277Z,3.03
2018-05-21T06:24:24.760Z,2.43
2018-05-21T06:26:53.251Z,2.50
2018-05-21T06:29:21.762Z,2.93
2018-05-21T06:31:49.999Z,2.80
2018-05-21T06:34:18.478Z,2.70
2018-05-21T06:36:46.972Z,2.77
2018-05-21T06:39:15.517Z,2.70
2018-05-21T06:41:43.220Z,2.63
2018-05-21T06:44:11.762Z,2.60
2018-05-21T06:46:39.494Z,2.63
2018-05-21T06:49:07.293Z,2.50
2018-05-21T06:51:35.067Z,2.60
2018-05-21T06:54:02.830Z,3.00
2018-05-21T06:56:30.683Z,3.57
2018-05-21T06:58:58.468Z,2.57
2018-05-21T07:01:27.073Z,3.43
2018-05-21T07:03:55.925Z,3.00
2018-05-21T07:06:23.668Z,3.13
2018-05-21T07:08:51.407Z,3.10
2018-05-21T07:11:19.142Z,3.10
2018-05-21T07:13:46.889Z,2.87
2018-05-21T07:16:14.639Z,2.70
2018-05-21T07:18:42.382Z,3.30
2018-05-21T07:21:10.086Z,2.57
2018-05-21T07:23:37.823Z,3.03
2018-05-21T07:26:05.526Z,3.17
2018-05-21T07:28:33.264Z,3.50
2018-05-21T07:31:01.365Z,3.27
2018-05-21T07:33:29.058Z,3.10
2018-05-21T07:35:56.773Z,3.00
2018-05-21T07:38:24.514Z,3.10
2018-05-21T07:40:52.232Z,2.80
2018-05-21T07:43:20.751Z,2.60
2018-05-21T07:45:48.440Z,2.73
2018-05-21T07:48:16.137Z,3.20
2018-05-21T07:50:44.736Z,3.20
2018-05-21T07:53:13.200Z,3.07
2018-05-21T07:55:41.676Z,3.10
2018-05-21T07:58:09.527Z,3.23
2018-05-21T08:00:37.232Z,2.80
2018-05-21T08:03:05.874Z,3.13
2018-05-21T08:05:33.559Z,2.77
2018-05-21T08:08:01.268Z,3.43
2018-05-21T08:10:29.062Z,2.87
2018-05-21T08:12:56.772Z,3.40
2018-05-21T08:15:25.244Z,3.23
2018-05-21T08:17:53.760Z,3.33
2018-05-21T08:20:21.494Z,3.23
2018-05-21T08:22:50.373Z,3.17
2018-05-21T08:25:18.125Z,3.10
2018-05-21T08:27:45.825Z,3.43
2018-05-21T08:30:13.631Z,2.87
2018-05-21T08:32:41.846Z,3.20
2018-05-21T08:35:10.311Z,2.97
2018-05-21T08:37:38.007Z,3.27
2018-05-21T08:40:06.528Z,3.80
2018-05-21T08:42:34.238Z,2.80
2018-05-21T08:45:03.096Z,2.70
2018-05-21T08:47:30.801Z,3.00
2018-05-21T08:49:59.257Z,2.97
2018-05-21T08:52:27.015Z,3.70
2018-05-21T08:54:55.528Z,4.23
2018-05-21T08:57:24.165Z,3.53
2018-05-21T08:59:51.873Z,3.07
2018-05-21T09:02:20.358Z,3.17
2018-05-21T09:04:49.054Z,3.53
2018-05-21T09:07:16.728Z,3.37
2018-05-21T09:09:44.430Z,3.13
2018-05-21T09:12:12.533Z,3.13
2018-05-21T09:14:41.012Z,3.30
2018-05-21T09:17:09.479Z,3.60
2018-05-21T09:19:37.225Z,3.60
2018-05-21T09:22:04.964Z,2.90
2018-05-21T09:24:32.696Z,2.93
2018-05-21T09:27:01.168Z,3.27
2018-05-21T09:29:29.016Z,3.30
2018-05-21T09:31:56.738Z,2.93
2018-05-21T09:34:24.424Z,3.17
2018-05-21T09:36:52.927Z,3.00
2018-05-21T09:39:20.620Z,3.60
2018-05-21T09:41:49.131Z,3.83
2018-05-21T09:44:16.880Z,2.97
2018-05-21T09:46:44.623Z,3.17
2018-05-21T09:49:13.242Z,3.20
2018-05-21T09:51:40.983Z,3.13
2018-05-21T09:54:09.461Z,3.90
2018-05-21T09:56:37.311Z,3.20
2018-05-21T09:59:05.009Z,3.50
2018-05-21T10:01:32.717Z,3.37
2018-05-21T10:04:00.445Z,3.10
2018-05-21T10:06:28.144Z,2.87
2018-05-21T10:08:55.887Z,3.57
2018-05-21T10:11:23.737Z,3.90
2018-05-21T10:13:51.433Z,2.90
2018-05-21T10:16:19.157Z,3.20
2018-05-21T10:18:47.008Z,3.07
2018-05-21T10:21:15.481Z,3.97
2018-05-21T10:23:43.977Z,3.87
2018-05-21T10:26:12.639Z,3.33
2018-05-21T10:28:41.828Z,2.80
2018-05-21T10:31:10.291Z,3.30
2018-05-21T10:33:38.045Z,3.00
2018-05-21T10:36:05.798Z,3.07
2018-05-21T10:38:34.033Z,3.30
2018-05-21T10:41:02.522Z,3.10
2018-05-21T10:43:31.084Z,3.27
2018-05-21T10:45:58.835Z,3.60
2018-05-21T10:48:26.528Z,2.67
2018-05-21T10:50:55.025Z,2.83
2018-05-21T10:53:23.512Z,2.83
2018-05-21T10:55:51.223Z,2.70
2018-05-21T10:58:19.060Z,2.73
2018-05-21T11:00:46.752Z,3.33
2018-05-21T11:03:14.455Z,2.90
2018-05-21T11:05:42.947Z,2.70
2018-05-21T11:08:10.656Z,2.40
2018-05-21T11:10:38.416Z,2.43
2018-05-21T11:13:06.129Z,2.30
2018-05-21T11:15:34.591Z,2.70
2018-05-21T11:18:02.399Z,2.70
2018-05-21T11:20:30.840Z,3.50
2018-05-21T11:22:58.577Z,2.30
2018-05-21T11:25:26.307Z,2.33
2018-05-21T11:27:53.997Z,2.20
2018-05-21T11:30:21.781Z,2.67
2018-05-21T11:32:49.498Z,2.40
2018-05-21T11:35:17.241Z,2.70
2018-05-21T11:37:45.722Z,2.80
2018-05-21T11:40:14.225Z,2.97
2018-05-21T11:42:41.929Z,2.60
2018-05-21T11:45:09.731Z,2.10
2018-05-21T11:47:38.229Z,2.50
2018-05-21T11:50:05.933Z,2.50
2018-05-21T11:52:33.785Z,3.30
2018-05-21T11:55:01.481Z,3.00
2018-05-21T11:57:29.166Z,2.70
2018-05-21T11:59:57.653Z,2.87
2018-05-21T12:02:26.251Z,2.50
2018-05-21T12:04:54.057Z,2.50
2018-05-21T12:07:22.531Z,2.10
2018-05-21T12:09:50.269Z,2.10
2018-05-21T12:12:17.961Z,2.20
2018-05-21T12:14:45.699Z,2.90
2018-05-21T12:17:13.396Z,2.30
2018-05-21T12:19:41.163Z,2.57
2018-05-21T12:22:08.868Z,3.03
2018-05-21T12:24:37.355Z,2.30
2018-05-21T12:27:05.893Z,2.20
2018-05-21T12:29:33.594Z,2.53
2018-05-21T12:32:02.104Z,2.53
2018-05-21T12:34:29.803Z,2.20
2018-05-21T12:36:57.553Z,2.70
2018-05-21T12:39:25.249Z,2.20
2018-05-21T12:41:53.002Z,2.27
2018-05-21T12:44:20.731Z,2.50
2018-05-21T12:46:48.443Z,2.37
2018-05-21T12:49:16.949Z,2.37
2018-05-21T12:51:45.556Z,2.30
2018-05-21T12:54:13.310Z,2.60
2018-05-21T12:56:41.009Z,2.50
2018-05-21T12:59:08.704Z,2.20
2018-05-21T13:01:37.208Z,2.90
2018-05-21T13:04:04.915Z,2.80
2018-05-21T13:06:33.014Z,2.57
2018-05-21T13:09:00.713Z,2.30
2018-05-21T13:11:28.403Z,2.67
2018-05-21T13:13:56.150Z,2.40
2018-05-21T13:16:23.865Z,2.90
2018-05-21T13:18:51.720Z,2.30
2018-05-21T13:21:19.414Z,2.27
2018-05-21T13:23:47.871Z,2.70
2018-05-21T13:26:15.717Z,2.40
2018-05-21T13:28:43.424Z,2.50
2018-05-21T13:31:11.894Z,2.50
2018-05-21T13:33:40.428Z,2.40
2018-05-21T13:36:08.126Z,2.50
2018-05-21T13:38:35.837Z,2.10
2018-05-21T13:41:03.648Z,2.40
2018-05-21T13:43:31.359Z,2.30
2018-05-21T13:45:59.121Z,3.10
2018-05-21T13:48:26.866Z,2.73
2018-05-21T13:50:54.607Z,2.60
2018-05-21T13:53:22.319Z,2.90
2018-05-21T13:55:50.013Z,2.17
2018-05-21T13:58:17.745Z,2.73
2018-05-21T14:00:45.479Z,2.43
2018-05-21T14:03:13.934Z,2.70
2018-05-21T14:05:42.060Z,4.30
2018-05-21T14:08:09.757Z,2.87
2018-05-21T14:10:37.465Z,2.70
2018-05-21T14:13:06.350Z,2.90
2018-05-21T14:15:34.820Z,2.47
2018-05-21T14:18:02.521Z,2.30
2018-05-21T14:20:30.293Z,2.97
2018-05-21T14:22:58.096Z,2.97
2018-05-21T14:25:25.909Z,2.30
2018-05-21T14:27:53.593Z,3.03
2018-05-21T14:30:21.288Z,2.90
2018-05-21T14:32:49.513Z,2.77
2018-05-21T14:35:18.131Z,2.83
2018-05-21T14:37:45.836Z,2.77
2018-05-21T14:40:14.439Z,2.20
2018-05-21T14:42:42.151Z,2.23
2018-05-21T14:45:09.857Z,2.80
2018-05-21T14:47:38.364Z,2.57
2018-05-21T14:50:07.020Z,2.23
2018-05-21T14:52:35.541Z,2.33
2018-05-21T14:55:03.362Z,2.13
2018-05-21T14:57:31.019Z,1.73
2018-05-21T14:59:59.546Z,2.30
2018-05-21T15:02:27.251Z,2.50
2018-05-21T15:04:55.000Z,2.40
2018-05-21T15:07:22.706Z,2.20
2018-05-21T15:09:51.199Z,2.40
2018-05-21T15:12:18.938Z,2.30
2018-05-21T15:14:47.463Z,2.60
2018-05-21T15:17:15.175Z,2.00
2018-05-21T15:19:43.643Z,2.50
2018-05-21T15:22:11.430Z,2.40
2018-05-21T15:24:39.922Z,2.30
2018-05-21T15:27:07.653Z,2.57
2018-05-21T15:29:35.349Z,2.10
2018-05-21T15:32:03.255Z,2.37
2018-05-21T15:34:30.972Z,2.27
2018-05-21T15:36:59.440Z,2.40
2018-05-21T15:39:27.957Z,3.13
2018-05-21T15:41:55.698Z,2.20
2018-05-21T15:44:23.486Z,1.90
2018-05-21T15:46:52.105Z,2.40
2018-05-21T15:49:19.896Z,2.20
2018-05-21T15:51:48.565Z,2.30
2018-05-21T15:54:16.268Z,1.93
2018-05-21T15:56:43.997Z,2.03
2018-05-21T15:59:13.024Z,2.17
2018-05-21T16:01:41.217Z,2.30
2018-05-21T16:04:08.933Z,2.10
2018-05-21T16:06:38.601Z,2.60
2018-05-21T16:09:07.753Z,2.40
2018-05-21T16:11:37.647Z,2.53
2018-05-21T16:14:06.116Z,2.33
2018-05-21T16:16:34.774Z,2.40
2018-05-21T16:19:02.490Z,2.17
2018-05-21T16:21:31.351Z,2.30
2018-05-21T16:23:59.139Z,3.37
2018-05-21T16:26:27.753Z,2.50
2018-05-21T16:28:55.470Z,2.67
2018-05-21T16:31:23.979Z,2.60
2018-05-21T16:33:53.328Z,4.73
2018-05-21T16:36:21.216Z,2.17
2018-05-21T16:38:50.036Z,2.27
2018-05-21T16:41:17.751Z,2.30
2018-05-21T16:43:45.605Z,2.30
2018-05-21T16:46:14.193Z,2.10
2018-05-21T16:48:42.292Z,2.33
2018-05-21T16:51:10.771Z,2.50
2018-05-21T16:53:39.234Z,2.27
2018-05-21T16:56:07.156Z,2.47
2018-05-21T16:58:34.908Z,2.50
2018-05-21T17:01:02.622Z,2.20
2018-05-21T17:03:30.348Z,3.00
2018-05-21T17:05:58.204Z,2.53
2018-05-21T17:08:25.922Z,2.50
2018-05-21T17:10:54.424Z,2.90
2018-05-21T17:13:22.183Z,1.83
2018-05-21T17:15:50.655Z,2.60
2018-05-21T17:18:19.173Z,2.17
2018-05-21T17:20:46.930Z,2.23
2018-05-21T17:23:14.648Z,2.70
2018-05-21T17:25:43.213Z,2.47
2018-05-21T17:28:10.946Z,2.40
2018-05-21T17:30:39.008Z,2.13
2018-05-21T17:33:11.263Z,2.60
2018-05-21T17:35:44.527Z,2.30
2018-05-21T17:38:12.644Z,2.73
2018-05-21T17:40:40.324Z,2.07
2018-05-21T17:43:08.040Z,2.50
2018-05-21T17:45:55.881Z,2.20
2018-05-21T17:48:25.746Z,1.97
2018-05-21T17:50:53.639Z,1.97
2018-05-21T17:53:23.768Z,2.33
2018-05-21T17:55:54.358Z,2.30
2018-05-21T17:58:22.882Z,1.97
2018-05-21T18:03:41.260Z,2.10
2018-05-21T18:06:09.584Z,2.20
2018-05-21T18:08:37.292Z,2.47
2018-05-21T18:11:06.984Z,2.47
2018-05-21T18:13:34.763Z,2.10
2018-05-21T18:16:02.549Z,2.20
2018-05-21T18:18:30.278Z,1.80
2018-05-21T18:21:00.825Z,1.53
2018-05-21T18:23:29.558Z,2.10
2018-05-21T18:25:58.037Z,2.30
2018-05-21T18:28:26.779Z,1.77
2018-05-21T18:30:56.429Z,1.77
2018-05-21T18:33:25.109Z,1.90
2018-05-21T18:35:55.343Z,2.10
2018-05-21T18:38:23.964Z,1.70
2018-05-21T18:40:52.476Z,2.00
2018-05-21T18:43:21.732Z,1.77
2018-05-21T18:45:50.588Z,1.83
2018-05-21T18:48:19.985Z,2.03
2018-05-21T18:50:56.240Z,2.33
2018-05-21T18:53:23.949Z,2.20
2018-05-21T18:55:54.926Z,1.97
2018-05-21T18:58:25.409Z,2.20
2018-05-21T19:00:56.922Z,2.10
2018-05-21T19:03:24.831Z,1.80
2018-05-21T19:05:53.480Z,1.77
2018-05-21T19:08:21.601Z,2.07
2018-05-21T19:10:49.879Z,2.03
2018-05-21T19:13:18.471Z,2.40
2018-05-21T19:15:46.559Z,2.40
2018-05-21T19:18:15.231Z,1.93
2018-05-21T19:20:43.194Z,2.17
2018-05-21T19:23:10.894Z,2.60
2018-05-21T19:25:39.095Z,1.60
2018-05-21T19:28:07.576Z,1.77
2018-05-21T19:30:36.041Z,1.70
2018-05-21T19:33:04.189Z,2.23
2018-05-21T19:35:31.898Z,2.50
2018-05-21T19:38:00.376Z,1.77
2018-05-21T19:40:28.912Z,2.50
2018-05-21T19:42:56.672Z,1.73
2018-05-21T19:45:24.375Z,2.23
2018-05-21T19:47:52.834Z,1.80
2018-05-21T19:50:20.694Z,2.10
2018-05-21T19:52:48.400Z,1.97
2018-05-21T19:55:16.863Z,2.47
2018-05-21T19:57:45.365Z,2.63
2018-05-21T20:00:13.863Z,1.90
2018-05-21T20:02:41.746Z,2.00
2018-05-21T20:05:11.447Z,2.40
2018-05-21T20:07:39.252Z,2.00
2018-05-21T20:10:07.113Z,2.17
2018-05-21T20:12:34.851Z,2.27
2018-05-21T20:15:02.648Z,1.90
2018-05-21T20:17:30.336Z,2.10
2018-05-21T20:20:21.023Z,1.73
2018-05-21T20:23:09.856Z,1.80
2018-05-21T20:25:59.347Z,2.20
2018-05-21T20:28:47.162Z,2.30
2018-05-21T20:31:34.483Z,2.23
2018-05-21T20:34:20.000Z,2.13
2018-05-21T20:36:49.848Z,1.63
2018-05-21T20:39:19.409Z,2.03
2018-05-21T20:41:47.881Z,2.03
2018-05-21T20:44:16.943Z,2.50
2018-05-21T20:46:45.331Z,2.07
2018-05-21T20:49:13.600Z,2.23
2018-05-21T20:51:43.488Z,2.03
2018-05-21T20:54:12.301Z,2.00
2018-05-21T20:56:40.782Z,2.10
2018-05-21T20:59:10.595Z,2.30
2018-05-21T21:01:39.468Z,2.77
2018-05-21T21:04:10.861Z,1.93
2018-05-21T21:06:41.406Z,2.30
2018-05-21T21:09:09.566Z,2.43
2018-05-21T21:11:38.802Z,2.10
2018-05-21T21:14:07.316Z,1.90
2018-05-21T21:16:35.018Z,2.30
2018-05-21T21:19:02.748Z,1.90
2018-05-21T21:21:30.452Z,2.00
2018-05-21T21:23:58.198Z,2.30
2018-05-21T21:26:26.684Z,2.20
2018-05-21T21:28:54.408Z,2.07
2018-05-21T21:31:22.099Z,2.30
2018-05-21T21:33:50.975Z,2.60
2018-05-21T21:36:19.458Z,2.67
2018-05-21T21:38:47.911Z,2.27
2018-05-21T21:41:15.659Z,2.40
2018-05-21T21:43:43.369Z,2.33
2018-05-21T21:46:11.871Z,2.00
2018-05-21T21:48:39.575Z,2.47
2018-05-21T21:51:07.312Z,2.23
2018-05-21T21:53:35.002Z,2.00
2018-05-21T21:56:02.768Z,2.40
2018-05-21T21:58:30.971Z,2.67
2018-05-21T22:00:59.464Z,1.90
2018-05-21T22:03:27.244Z,2.23
2018-05-21T22:05:54.992Z,2.20
2018-05-21T22:08:22.698Z,2.20
2018-05-21T22:10:50.452Z,2.17
2018-05-21T22:13:18.161Z,2.00
2018-05-21T22:15:46.776Z,2.43
2018-05-21T22:18:14.480Z,2.10
2018-05-21T22:20:42.171Z,2.57
2018-05-21T22:23:10.783Z,2.60
2018-05-21T22:25:38.520Z,2.60
2018-05-21T22:28:06.978Z,2.50
2018-05-21T22:30:34.720Z,1.93
2018-05-21T22:33:02.415Z,2.57
2018-05-21T22:35:31.037Z,2.80
2018-05-21T22:37:59.263Z,2.67
2018-05-21T22:40:26.956Z,3.20
2018-05-21T22:42:56.409Z,2.23
2018-05-21T22:45:24.195Z,3.00
2018-05-21T22:47:55.331Z,2.63
2018-05-21T22:50:23.244Z,2.40
2018-05-21T22:52:50.945Z,3.00
2018-05-21T22:55:18.809Z,2.43
2018-05-21T22:57:46.545Z,2.60
2018-05-21T23:00:14.285Z,2.43
2018-05-21T23:02:42.440Z,2.53
2018-05-21T23:05:10.916Z,2.50
2018-05-21T23:07:39.404Z,3.30
2018-05-21T23:10:08.068Z,3.13
2018-05-21T23:12:35.776Z,3.00
2018-05-21T23:15:03.540Z,2.70
2018-05-21T23:17:31.377Z,3.10
2018-05-21T23:19:59.850Z,2.80
2018-05-21T23:22:40.292Z,2.27
2018-05-21T23:25:08.023Z,3.10
2018-05-21T23:27:35.737Z,2.80
2018-05-21T23:30:04.292Z,2.90
2018-05-21T23:32:33.218Z,2.60
2018-05-21T23:35:01.674Z,2.70
2018-05-21T23:37:29.360Z,3.13
2018-05-21T23:39:57.875Z,2.47
2018-05-21T23:42:25.608Z,2.67
2018-05-21T23:44:54.479Z,2.80
2018-05-21T23:47:22.930Z,3.10
2018-05-21T23:49:50.628Z,2.63
2018-05-21T23:52:19.145Z,2.90
2018-05-21T23:54:46.823Z,2.50
2018-05-21T23:57:14.522Z,3.03
2018-05-21T23:59:43.024Z,2.93
